createdAt,value
2023-02-04T00:02:24.238Z,100102.34
2023-02-04T00:07:27.218Z,100117.35
2023-02-04T00:12:30.124Z,100129.13
2023-02-04T00:17:33.333Z,100144.83
2023-02-04T00:22:36.240Z,100162.93
2023-02-04T00:27:39.202Z,100180.04
2023-02-04T00:32:42.151Z,100195.93
2023-02-04T00:37:45.138Z,100210.95
2023-02-04T00:42:48.262Z,100218.31
2023-02-04T00:47:51.684Z,100237.59
2023-02-04T00:52:54.581Z,100260.98
2023-02-04T00:57:57.484Z,100281.25
2023-02-04T01:03:00.443Z,100292.32
2023-02-04T01:08:04.221Z,100306.14
2023-02-04T01:13:08.568Z,100310.92
2023-02-04T01:18:12.990Z,100309.59
2023-02-04T01:23:15.900Z,100320.38
2023-02-04T01:28:18.831Z,100329.28
2023-02-04T01:33:22.123Z,100339.02
2023-02-04T01:38:25.026Z,100362.08
2023-02-04T01:43:28.514Z,100381.52
2023-02-04T01:48:31.856Z,100406.77
2023-02-04T01:53:36.647Z,100415.27
2023-02-04T01:58:39.609Z,100428.74
2023-02-04T02:03:43.126Z,100453.96
2023-02-04T02:08:46.029Z,100473.58
2023-02-04T02:13:49.141Z,100489.08
2023-02-04T02:18:55.012Z,100498.13
2023-02-04T02:23:58.294Z,100515.87
2023-02-04T02:29:01.331Z,100531.23
2023-02-04T02:34:04.233Z,100550.19
2023-02-04T02:39:07.381Z,100560.26
2023-02-04T02:44:12.500Z,100575.41
2023-02-04T02:49:20.120Z,100594.12
2023-02-04T02:54:27.009Z,100604.60
2023-02-04T02:59:30.013Z,100616.25
2023-02-04T03:04:38.089Z,100616.98
2023-02-04T03:09:41.349Z,100634.04
2023-02-04T03:14:44.353Z,100651.80
2023-02-04T03:19:47.260Z,100672.80
2023-02-04T03:24:50.368Z,100688.04
2023-02-04T03:29:53.479Z,100698.69
2023-02-04T03:34:56.281Z,100714.11
2023-02-04T03:39:59.189Z,100726.67
2023-02-04T03:45:02.093Z,100743.15
2023-02-04T03:50:05.810Z,100757.35
2023-02-04T03:55:09.099Z,100763.71
2023-02-04T04:00:13.001Z,100772.75
2023-02-04T04:05:16.629Z,100781.45
2023-02-04T04:10:19.475Z,100794.35
2023-02-04T04:15:22.380Z,100806.27
2023-02-04T04:20:27.436Z,100808.34
2023-02-04T04:25:30.652Z,100815.85
2023-02-04T04:30:33.840Z,100822.55
2023-02-04T04:35:36.963Z,100833.65
2023-02-04T04:40:39.867Z,100847.35
2023-02-04T04:45:42.763Z,100874.71
2023-02-04T04:50:45.668Z,100897.07
2023-02-04T04:55:48.877Z,100899.22
2023-02-04T05:00:51.918Z,100900.33
2023-02-04T05:05:55.311Z,100903.28
2023-02-04T05:10:58.213Z,100911.98
2023-02-04T05:16:01.125Z,100924.48
2023-02-04T05:21:04.945Z,100929.02
2023-02-04T05:26:08.463Z,100938.98
2023-02-04T05:31:11.424Z,100951.20
2023-02-04T05:36:14.470Z,100967.58
2023-02-04T05:41:17.373Z,100982.08
2023-02-04T05:46:20.281Z,100987.25
2023-02-04T05:51:23.153Z,100994.15
2023-02-04T05:56:26.088Z,100999.64
2023-02-04T06:01:29.010Z,101011.58
2023-02-04T06:06:31.889Z,101026.31
2023-02-04T06:11:34.894Z,101034.50
2023-02-04T06:16:37.864Z,101036.16
2023-02-04T06:21:40.804Z,101051.83
2023-02-04T06:26:43.811Z,101067.52
2023-02-04T06:31:47.403Z,101076.73
2023-02-04T06:36:50.447Z,101069.41
2023-02-04T06:41:53.346Z,101072.32
2023-02-04T06:46:56.659Z,101077.48
2023-02-04T06:51:59.564Z,101096.73
2023-02-04T06:57:12.505Z,101115.25
2023-02-04T07:02:15.656Z,101129.52
2023-02-04T07:07:19.024Z,101137.70
2023-02-04T07:12:21.927Z,101138.10
2023-02-04T07:17:24.831Z,101136.61
2023-02-04T07:22:27.737Z,101141.45
2023-02-04T07:27:30.951Z,101144.16
2023-02-04T07:32:34.055Z,101151.52
2023-02-04T07:37:36.960Z,101154.91
2023-02-04T07:42:39.854Z,101167.56
2023-02-04T07:47:42.762Z,101167.21
2023-02-04T07:52:45.549Z,101172.83
2023-02-04T07:57:48.462Z,101176.00
2023-02-04T08:02:51.424Z,101174.55
2023-02-04T08:07:54.574Z,101174.30
2023-02-04T08:12:57.477Z,101170.09
2023-02-04T08:18:00.381Z,101186.00
2023-02-04T08:23:03.177Z,101205.77
2023-02-04T08:28:06.106Z,101222.10
2023-02-04T08:33:08.987Z,101239.25
2023-02-04T08:38:11.732Z,101244.40
2023-02-04T08:43:14.797Z,101257.38
2023-02-04T08:48:17.816Z,101259.92
2023-02-04T08:53:20.718Z,101264.78
2023-02-04T08:58:23.732Z,101270.15
2023-02-04T09:03:26.642Z,101273.46
2023-02-04T09:08:29.650Z,101279.39
2023-02-04T09:13:33.064Z,101281.55
2023-02-04T09:18:35.968Z,101292.20
2023-02-04T09:23:38.778Z,101304.79
2023-02-04T09:28:41.786Z,101307.19
2023-02-04T09:33:44.890Z,101308.41
2023-02-04T09:38:47.799Z,101313.86
2023-02-04T09:43:51.080Z,101308.59
2023-02-04T09:48:54.270Z,101313.72
2023-02-04T09:54:13.002Z,101320.94
2023-02-04T09:59:21.212Z,101317.39
2023-02-04T10:04:24.627Z,101314.89
2023-02-04T10:09:27.638Z,101315.86
2023-02-04T10:14:30.839Z,101326.08
2023-02-04T10:19:34.417Z,101333.48
2023-02-04T10:24:38.802Z,101340.44
2023-02-04T10:29:43.554Z,101339.94
2023-02-04T10:34:46.460Z,101338.02
2023-02-04T10:39:50.010Z,101340.67
2023-02-04T10:44:53.606Z,101345.05
2023-02-04T10:50:17.553Z,101345.68
2023-02-04T10:55:22.951Z,101345.10
2023-02-04T11:00:26.477Z,101351.20
2023-02-04T11:05:35.307Z,101353.54
2023-02-04T11:10:38.117Z,101356.80
2023-02-04T11:15:45.024Z,101362.18
2023-02-04T11:20:50.077Z,101365.88
2023-02-04T11:26:08.241Z,101374.20
2023-02-04T11:31:20.687Z,101379.10
2023-02-04T11:36:24.311Z,101376.09
2023-02-04T11:41:30.973Z,101378.92
2023-02-04T11:46:33.881Z,101380.98
2023-02-04T11:51:36.879Z,101385.23
2023-02-04T11:56:40.089Z,101390.90
2023-02-04T12:01:43.199Z,101402.23
2023-02-04T12:06:58.707Z,101403.52
2023-02-04T12:12:03.449Z,101405.89
2023-02-04T12:17:20.700Z,101412.69
2023-02-04T12:22:23.556Z,101416.00
2023-02-04T12:27:26.493Z,101416.05
2023-02-04T12:32:29.400Z,101427.80
2023-02-04T12:37:32.511Z,101433.23
2023-02-04T12:42:35.406Z,101440.16
2023-02-04T12:47:38.826Z,101442.11
2023-02-04T12:52:41.829Z,101447.94
2023-02-04T12:57:44.837Z,101440.02
2023-02-04T13:02:48.863Z,101440.88
2023-02-04T13:07:51.876Z,101445.55
2023-02-04T13:12:54.797Z,101450.42
2023-02-04T13:17:58.254Z,101453.69
2023-02-04T13:23:01.200Z,101455.02
2023-02-04T13:28:04.257Z,101449.41
2023-02-04T13:33:07.316Z,101450.60
2023-02-04T13:38:10.218Z,101454.88
2023-02-04T13:43:13.125Z,101456.15
2023-02-04T13:48:16.756Z,101461.46
2023-02-04T13:53:19.761Z,101470.38
2023-02-04T13:58:22.659Z,101482.72
2023-02-04T14:03:27.210Z,101492.90
2023-02-04T14:08:30.078Z,101496.95
2023-02-04T14:13:33.315Z,101502.89
2023-02-04T14:18:36.225Z,101504.30
2023-02-04T14:23:39.328Z,101509.27
2023-02-04T14:28:42.230Z,101513.95
2023-02-04T14:33:45.072Z,101518.55
2023-02-04T14:38:48.034Z,101523.27
2023-02-04T14:43:51.146Z,101532.39
2023-02-04T14:48:54.785Z,101535.05
2023-02-04T14:53:57.671Z,101533.34
2023-02-04T14:59:00.577Z,101526.91
2023-02-04T15:04:03.590Z,101538.08
2023-02-04T15:09:06.599Z,101545.70
2023-02-04T15:14:09.497Z,101554.89
2023-02-04T15:19:12.404Z,101570.50
2023-02-04T15:24:15.506Z,101582.13
2023-02-04T15:29:19.136Z,101583.81
2023-02-04T15:34:22.230Z,101583.11
2023-02-04T15:39:25.134Z,101585.36
2023-02-04T15:44:29.005Z,101594.14
2023-02-04T15:49:31.967Z,101599.14
2023-02-04T15:54:34.986Z,101605.84
2023-02-04T15:59:37.982Z,101611.98
2023-02-04T16:04:41.810Z,101620.75
2023-02-04T16:09:44.739Z,101620.40
2023-02-04T16:14:47.630Z,101624.27
2023-02-04T16:19:50.427Z,101634.63
2023-02-04T16:24:53.474Z,101644.77
2023-02-04T16:29:56.985Z,101651.89
2023-02-04T16:35:01.692Z,101649.27
2023-02-04T16:40:05.864Z,101651.41
2023-02-04T16:45:10.261Z,101653.02
2023-02-04T16:50:13.159Z,101652.98
2023-02-04T16:55:16.172Z,101658.84
2023-02-04T17:00:19.811Z,101669.44
2023-02-04T17:05:22.794Z,101681.77
2023-02-04T17:10:45.156Z,101681.12
2023-02-04T17:15:48.089Z,101681.40
2023-02-04T17:20:50.960Z,101686.75
2023-02-04T17:25:54.180Z,101695.98
2023-02-04T17:30:57.209Z,101702.42
2023-02-04T17:36:01.489Z,101710.27
2023-02-04T17:41:04.533Z,101722.42
2023-02-04T17:46:07.533Z,101728.61
2023-02-04T17:51:10.653Z,101738.66
2023-02-04T17:56:14.898Z,101749.49
2023-02-04T18:01:21.597Z,101759.83
2023-02-04T18:06:30.220Z,101763.84
2023-02-04T18:11:39.057Z,101764.27
2023-02-04T18:16:42.045Z,101767.17
2023-02-04T18:21:46.677Z,101771.95
2023-02-04T18:26:52.642Z,101788.00
2023-02-04T18:32:19.349Z,101800.36
2023-02-04T18:37:28.487Z,101808.17
2023-02-04T18:42:31.862Z,101813.09
2023-02-04T18:47:36.133Z,101827.15
2023-02-04T18:52:39.575Z,101839.35
2023-02-04T18:57:42.667Z,101843.50
2023-02-04T19:02:52.221Z,101853.69
2023-02-04T19:08:04.037Z,101863.02
2023-02-04T19:13:20.866Z,101867.59
2023-02-04T19:18:28.270Z,101871.85
2023-02-04T19:23:36.857Z,101877.11
2023-02-04T19:28:40.026Z,101883.09
2023-02-04T19:33:45.582Z,101887.79
2023-02-04T19:38:52.076Z,101895.94
2023-02-04T19:44:41.181Z,101906.20
2023-02-04T19:49:44.678Z,101911.69
2023-02-04T19:54:48.306Z,101919.48
2023-02-04T19:59:55.919Z,101921.81
2023-02-04T20:04:59.769Z,101926.52
2023-02-04T20:10:24.457Z,101929.29
2023-02-04T20:15:27.365Z,101933.02
2023-02-04T20:20:32.738Z,101944.21
2023-02-04T20:25:45.249Z,101950.78
2023-02-04T20:30:52.021Z,101961.75
2023-02-04T20:36:13.693Z,101976.81
2023-02-04T20:41:20.489Z,101984.65
2023-02-04T20:46:25.795Z,101982.64
2023-02-04T20:51:29.059Z,101987.30
2023-02-04T20:56:41.125Z,101986.10
2023-02-04T21:01:46.586Z,101998.63
2023-02-04T21:06:55.174Z,102008.31
2023-02-04T21:11:59.202Z,102026.65
2023-02-04T21:17:02.912Z,102041.98
2023-02-04T21:22:05.749Z,102045.39
2023-02-04T21:27:08.642Z,102052.27
2023-02-04T21:32:11.535Z,102057.67
2023-02-04T21:37:14.440Z,102060.95
2023-02-04T21:42:17.344Z,102057.59
2023-02-04T21:47:20.349Z,102052.02
2023-02-04T21:52:23.257Z,102053.84
2023-02-04T21:57:26.161Z,102058.04
2023-02-04T22:02:29.687Z,102066.42
2023-02-04T22:07:32.795Z,102061.52
2023-02-04T22:12:35.997Z,102062.02
2023-02-04T22:17:39.008Z,102065.70
2023-02-04T22:22:45.714Z,102063.95
2023-02-04T22:27:49.522Z,102065.80
2023-02-04T22:32:52.432Z,102067.39
2023-02-04T22:37:55.437Z,102067.52
2023-02-04T22:42:58.758Z,102069.69
2023-02-04T22:48:01.861Z,102073.46
2023-02-04T22:53:04.777Z,102073.82
2023-02-04T22:58:07.874Z,102081.55
2023-02-04T23:03:10.980Z,102088.96
2023-02-04T23:08:14.604Z,102092.85
2023-02-04T23:13:18.382Z,102095.33
2023-02-04T23:18:21.325Z,102095.55
2023-02-04T23:23:24.633Z,102095.80
2023-02-04T23:28:27.641Z,102099.83
2023-02-04T23:33:30.858Z,102104.92
2023-02-04T23:38:33.754Z,102102.35
2023-02-04T23:43:36.660Z,102103.23
2023-02-04T23:48:39.567Z,102100.11
2023-02-04T23:53:42.477Z,102096.23
2023-02-04T23:58:45.373Z,102098.08
